• Join FlightAware (Why Join?)
  • Login
  • US Flag 
Gobble Gobble! 
10:39PM EST


 

Airport Tracker/Info


-or-


 

Live Flight TrackerFlight Track Log ✈ UPS32 ✈ 20-Apr-2013 ✈ KSDF - PHNL

Flight Track Log - Related Links

Times and Time Zones

All times are in EDT time to prevent confusion due to time zone crossing. See the UPS32 flight status page for this flight to view local times or setup timezone preferences in your user account.

Time Position Orientation Groundspeed Altitude Reporting Facility
EDT Latitude Longitude Course Direction KTS MPH feet Rate Location/Type
04:58AM 38.1500 -85.7370 165° South 174 200 1,100  Level FlightAware
04:58AM 38.1230 -85.7360 178° South 217 250 1,500 720 Climbing FlightAware
04:59AM 38.0950 -85.7380 183° South 257 296 1,800 1,380 Climbing FlightAware
04:59AM 38.0600 -85.7520 197° South 265 305 2,800 2,100 Climbing FlightAware
05:00AM 38.0490 -85.7680 229° Southwest 264 304 3,400 2,820 Climbing FlightAware
05:00AM 38.0410 -85.8080 256° West 260 299 4,700 3,000 Climbing FlightAware
05:00AM 38.0390 -85.8500 267° West 258 297 6,200 2,760 Climbing FlightAware
05:01AM 38.0380 -85.8960 268° West 263 303 7,500 2,820 Climbing FlightAware
05:01AM 38.0360 -85.9360 266° West 255 293 8,800 3,060 Climbing FlightAware
05:02AM 38.0320 -86.0020 266° West 245 282 11,100 1,920 Climbing FlightAware
05:03AM 38.0340 -86.0700 272° West 250 288 11,900 480 Climbing FlightAware
05:04AM 38.0380 -86.1190 276° West 250 288 11,900 1,860 Level FlightAware
05:04AM 38.0600 -86.2270 285° West 338 389 14,700 2,520 Climbing FlightAware
05:05AM 38.0700 -86.3120 279° West 368 423 15,700 1,920 Climbing FlightAware
05:06AM 38.0830 -86.3970 281° West 375 432 17,300 1,920 Climbing FlightAware
05:07AM 38.0990 -86.4980 281° West 389 448 18,500 1,620 Climbing FlightAware
05:07AM 38.1140 -86.5860 282° West 394 453 19,600 1,380 Climbing FlightAware
05:08AM 38.1270 -86.6780 280° West 403 464 20,400 1,380 Climbing FlightAware
05:09AM 38.1420 -86.7840 280° West 408 470 21,600 1,380 Climbing FlightAware
05:09AM 38.1560 -86.8790 281° West 416 479 22,400 1,380 Climbing FlightAware
05:10AM 38.1720 -86.9930 280° West 417 480 23,600 1,380 Climbing FlightAware
05:11AM 38.1860 -87.0870 281° West 421 484 24,400 1,560 Climbing FlightAware
05:11AM 38.2000 -87.1870 280° West 416 479 25,700 1,800 Climbing FlightAware
05:12AM 38.2150 -87.2920 280° West 411 473 27,000 1,440 Climbing FlightAware
05:13AM 38.2270 -87.3850 279° West 411 473 27,800 1,320 Climbing FlightAware
05:14AM 38.2430 -87.4970 280° West 409 471 28,900 1,260 Climbing FlightAware
05:14AM 38.2550 -87.5870 280° West 409 471 29,600 780 Climbing FlightAware
05:15AM 38.2680 -87.6860 280° West 409 471 30,000 240 Climbing FlightAware
05:16AM 38.2820 -87.7890 280° West 410 472 30,000  Level FlightAware
05:16AM 38.2950 -87.8860 280° West 409 471 30,000  Level FlightAware
05:17AM 38.3090 -87.9880 280° West 411 473 30,000  Level FlightAware
05:18AM 38.3220 -88.0910 279° West 412 474 30,000  Level FlightAware
05:18AM 38.3350 -88.1870 280° West 412 474 30,000  Level FlightAware
05:19AM 38.3480 -88.2900 279° West 412 474 30,000  Level FlightAware
05:20AM 38.3610 -88.3860 280° West 412 474 30,000  Level FlightAware
05:21AM 38.3750 -88.4950 279° West 421 484 30,000  Level FlightAware
05:21AM 38.3880 -88.5950 279° West 417 480 30,000  Level FlightAware
05:22AM 38.4000 -88.6920 279° West 416 479 30,000  Level FlightAware
05:23AM 38.4130 -88.8010 279° West 421 484 30,000  Level FlightAware
05:23AM 38.4250 -88.8990 279° West 419 482 30,000  Level FlightAware
05:24AM 38.4400 -89.0110 280° West 420 483 30,000  Level FlightAware
05:25AM 38.4520 -89.1060 279° West 418 481 30,000  Level FlightAware
05:25AM 38.4650 -89.2160 279° West 418 481 30,000  Level FlightAware
05:26AM 38.4770 -89.3140 279° West 419 482 30,000  Level FlightAware
05:27AM 38.4880 -89.4120 278° West 421 484 30,000  Level FlightAware
05:27AM 38.5000 -89.5100 279° West 421 484 30,000  Level FlightAware
05:28AM 38.5130 -89.6190 279° West 421 484 30,000  Level FlightAware
05:29AM 38.5250 -89.7220 279° West 421 484 30,000  Level FlightAware
05:30AM 38.5370 -89.8280 278° West 423 487 30,000  Level FlightAware
05:30AM 38.5490 -89.9270 279° West 423 487 30,000  Level FlightAware
05:31AM 38.5600 -90.0280 278° West 424 488 30,000  Level FlightAware
05:32AM 38.5730 -90.1400 278° West 425 489 30,000  Level FlightAware
05:32AM 38.5840 -90.2340 279° West 425 489 30,000  Level FlightAware
05:33AM 38.5970 -90.3510 278° West 426 490 30,000  Level FlightAware
05:34AM 38.6080 -90.4510 278° West 426 490 30,000  Level FlightAware
05:35AM 38.6200 -90.5650 278° West 426 490 30,000  Level FlightAware
05:35AM 38.6310 -90.6630 278° West 426 490 30,000  Level FlightAware
05:36AM 38.6420 -90.7620 278° West 426 490 30,000  Level FlightAware
05:37AM 38.6550 -90.8920 277° West 427 491 30,000  Level FlightAware
05:37AM 38.6630 -90.9780 277° West 427 491 30,000  Level FlightAware
05:38AM 38.6710 -91.0630 277° West 427 491 30,000  Level FlightAware
05:39AM 38.6820 -91.1700 278° West 427 491 30,000  Level FlightAware
05:40AM 38.6900 -91.2550 277° West 427 491 30,000  Level FlightAware
05:40AM 38.6980 -91.3410 277° West 427 491 30,000  Level FlightAware
05:41AM 38.7060 -91.4260 277° West 427 491 30,000  Level FlightAware
05:42AM 38.7140 -91.5120 277° West 427 491 30,000  Level FlightAware
05:42AM 38.7250 -91.6180 278° West 427 491 30,000  Level FlightAware
05:43AM 38.7330 -91.7040 277° West 427 491 30,000  Level FlightAware
05:44AM 38.7410 -91.7890 277° West 427 491 30,000  Level FlightAware
05:44AM 38.7490 -91.8750 277° West 427 491 30,000  Level FlightAware
05:45AM 38.7570 -91.9600 277° West 427 491 30,000  Level FlightAware
05:46AM 38.7680 -92.0670 278° West 427 491 30,000  Level FlightAware
05:48AM 38.8280 -92.6320 278° West 433 498 30,000  Level FlightAware
05:49AM 38.8350 -92.7140 276° West 432 497 30,000  Level FlightAware
05:50AM 38.8460 -92.8380 277° West 431 496 30,000  Level FlightAware
05:50AM 38.8570 -92.9530 277° West 431 496 30,000  Level FlightAware
05:51AM 38.8660 -93.0540 277° West 430 495 30,000  Level FlightAware
05:52AM 38.8760 -93.1710 276° West 430 495 30,000  Level FlightAware
05:52AM 38.8850 -93.2750 276° West 430 495 30,000  Level FlightAware
05:53AM 38.8930 -93.3740 276° West 431 496 30,000  Level FlightAware
05:54AM 38.9030 -93.4890 276° West 432 497 30,000  Level FlightAware
05:55AM 38.9110 -93.5910 276° West 433 498 30,000  Level FlightAware
05:55AM 38.9190 -93.6900 276° West 434 499 30,000  Level FlightAware
05:56AM 38.9290 -93.8110 276° West 435 501 30,000  Level FlightAware
05:57AM 38.9380 -93.9240 276° West 436 502 30,000  Level FlightAware
05:57AM 38.9460 -94.0240 276° West 436 502 30,000  Level FlightAware
05:58AM 38.9540 -94.1270 276° West 437 503 30,000  Level FlightAware
05:59AM 38.9640 -94.2490 276° West 439 505 30,000  Level FlightAware
05:59AM 38.9720 -94.3530 276° West 440 506 30,000  Level FlightAware
06:00AM 38.9800 -94.4640 275° West 441 507 30,000  Level FlightAware
06:01AM 38.9880 -94.5660 276° West 439 505 30,000  Level FlightAware
06:02AM 38.9960 -94.6730 276° West 439 505 30,000  Level FlightAware
06:02AM 39.0040 -94.7900 275° West 439 505 30,000  Level FlightAware
06:03AM 39.0120 -94.8960 276° West 438 504 30,000  Level FlightAware
06:04AM 39.0190 -94.9970 275° West 437 503 30,000  Level FlightAware
06:04AM 39.0270 -95.1130 275° West 436 502 30,000  Level FlightAware
06:05AM 39.0350 -95.2190 276° West 436 502 30,000  Level FlightAware
06:06AM 39.0410 -95.3220 274° West 435 501 30,000  Level FlightAware
06:06AM 39.0340 -95.2170 95° East 437 503 30,000  Level FlightAware
06:07AM 39.0410 -95.3140 275° West 436 502 30,000  Level FlightAware
06:08AM 39.0470 -95.4070 275° West 434 499 30,000  Level FlightAware
06:09AM 39.0520 -95.4790 275° West 434 499 30,000  Level FlightAware
06:09AM 39.0560 -95.5410 275° West 434 499 30,000  Level FlightAware
06:10AM 39.0610 -95.6180 275° West 434 499 30,000  Level FlightAware
06:11AM 39.0650 -95.6830 275° West 435 501 30,000  Level FlightAware
06:12AM 39.0730 -95.7990 275° West 437 503 30,000  Level FlightAware
06:13AM 39.0780 -95.8850 274° West 439 505 30,000  Level FlightAware
06:13AM 39.0810 -95.9260 275° West 440 506 30,000  Level FlightAware
06:14AM 39.0850 -95.9920 274° West 441 507 30,000  Level FlightAware
06:15AM 39.0900 -96.0780 274° West 441 507 30,000  Level FlightAware
06:16AM 39.0950 -96.1670 274° West 443 510 30,000 60 Level FlightAware
06:17AM 39.1010 -96.2700 274° West 444 511 30,100 60 Climbing FlightAware
06:17AM 39.1060 -96.3590 274° West 444 511 30,100  Level FlightAware
06:18AM 39.1110 -96.4490 274° West 444 511 30,100 -60 Level FlightAware
06:19AM 39.1350 -96.8510 275° West 30,000 -120 Descending FlightAware
06:19AM 39.1650 -97.4239 275° West 447 514 30,000  Level Kansas City Center
06:20AM 39.1742 -97.6031 274° West 451 519 30,000  Level Kansas City Center
06:21AM 39.1811 -97.7575 273° West 451 519 30,000  Level Kansas City Center
06:22AM 39.1864 -97.9019 273° West 449 517 30,000  Level Kansas City Center
06:23AM 39.1936 -98.0633 273° West 451 519 30,000 -60 Level Kansas City Center
06:24AM 39.2008 -98.2233 273° West 451 519 29,900  Descending Kansas City Center
06:25AM 39.2075 -98.3814 273° West 447 514 30,000  Climbing Kansas City Center
06:26AM 39.2153 -98.5500 273° West 445 512 30,000  Level Kansas City Center
06:26AM 39.2161 -98.5919 271° West 448 516 30,000  Level Denver Center
06:27AM 39.2222 -98.7522 273° West 446 513 30,000  Level Denver Center
06:28AM 39.2278 -98.9136 273° West 449 517 30,000  Level Denver Center
06:29AM 39.2344 -99.0858 273° West 452 520 30,100  Climbing Denver Center
06:30AM 39.2392 -99.2425 272° West 455 524 30,100 -60 Level Denver Center
06:32AM 39.2450 -99.3981 273° West 454 522 30,000 -60 Descending Denver Center
06:33AM 39.2508 -99.5792 272° West 453 521 30,000  Level Denver Center
06:34AM 39.2553 -99.7350 272° West 454 522 30,000  Level Denver Center
06:35AM 39.2600 -99.8919 272° West 456 525 30,000  Level Denver Center
06:36AM 39.2644 -100.0719 272° West 452 520 30,000  Level Denver Center
06:37AM 39.2681 -100.2289 272° West 455 524 30,000  Level Denver Center
06:38AM 39.2731 -100.3847 272° West 454 522 30,000  Level Denver Center
06:39AM 39.2758 -100.5414 271° West 456 525 30,000  Level Denver Center
06:40AM 39.2803 -100.7258 272° West 457 526 30,000  Level Denver Center
06:41AM 39.2839 -100.8847 272° West 462 532 30,000  Level Denver Center
06:46AM 39.2978 -101.7670 272° West 452 520 30,000  Level FlightAware ADS-B
06:46AM 39.2988 -101.8510 271° West 452 520 30,000  Level FlightAware ADS-B
06:47AM 39.2997 -101.9340 271° West 452 520 30,000  Level FlightAware ADS-B
06:47AM 39.3005 -102.0150 271° West 453 521 30,000  Level FlightAware ADS-B
06:48AM 39.3013 -102.0960 271° West 454 522 30,000  Level FlightAware ADS-B
06:48AM 39.3021 -102.1800 271° West 455 524 30,000  Level FlightAware ADS-B
06:49AM 39.3029 -102.2620 271° West 456 525 30,000  Level FlightAware ADS-B
06:49AM 39.3032 -102.3460 270° West 456 525 30,000  Level FlightAware ADS-B
06:50AM 39.3038 -102.4310 271° West 457 526 30,000  Level FlightAware ADS-B
06:50AM 39.3044 -102.5120 271° West 457 526 30,000  Level FlightAware ADS-B
06:51AM 39.3048 -102.5940 270° West 458 527 30,000  Level FlightAware ADS-B
06:51AM 39.3052 -102.6760 270° West 459 528 30,000  Level FlightAware ADS-B
06:52AM 39.3055 -102.7610 270° West 459 528 30,000  Level FlightAware ADS-B
06:52AM 39.3057 -102.8460 270° West 459 528 30,000  Level FlightAware ADS-B
06:53AM 39.3060 -102.9280 270° West 460 529 30,000  Level FlightAware ADS-B
06:53AM 39.3062 -103.0130 270° West 461 531 30,000  Level FlightAware ADS-B
06:54AM 39.3062 -103.0960 270° West 461 531 30,000  Level FlightAware ADS-B
06:55AM 39.3062 -103.1810 270° West 462 532 30,000  Level FlightAware ADS-B
06:55AM 39.3061 -103.2640 270° West 462 532 30,000  Level FlightAware ADS-B
06:56AM 39.3061 -103.3490 270° West 461 531 30,000  Level FlightAware ADS-B
06:56AM 39.3060 -103.4310 270° West 460 529 30,000  Level FlightAware ADS-B
06:57AM 39.3057 -103.5130 270° West 459 528 30,000  Level FlightAware ADS-B
06:57AM 39.3054 -103.5960 270° West 458 527 30,000  Level FlightAware ADS-B
06:58AM 39.3050 -103.6770 270° West 458 527 30,000  Level FlightAware ADS-B
06:58AM 39.3047 -103.7590 270° West 458 527 30,000  Level FlightAware ADS-B
06:59AM 39.3043 -103.8440 270° West 458 527 30,000  Level FlightAware ADS-B
06:59AM 39.3038 -103.9260 270° West 460 529 30,000  Level FlightAware ADS-B
07:00AM 39.3032 -104.0080 269° West 462 532 30,000  Level FlightAware ADS-B
07:00AM 39.3024 -104.0940 269° West 463 533 30,000  Level FlightAware ADS-B
07:01AM 39.3018 -104.1770 269° West 464 534 30,000 60 Level FlightAware ADS-B
07:01AM 39.3011 -104.2630 269° West 466 536 30,100 60 Climbing FlightAware ADS-B
07:02AM 39.3003 -104.3460 269° West 468 539 30,100  Level FlightAware ADS-B
07:02AM 39.2993 -104.4360 269° West 470 541 30,100  Level FlightAware ADS-B
07:03AM 39.2983 -104.5230 269° West 472 543 30,100  Level FlightAware ADS-B
07:03AM 39.2973 -104.6100 269° West 469 540 30,100 -120 Level FlightAware ADS-B
07:04AM 39.2962 -104.6930 269° West 466 536 30,000 -120 Descending FlightAware ADS-B
07:04AM 39.2950 -104.7790 269° West 463 533 30,000  Level FlightAware ADS-B
07:05AM 39.2939 -104.8620 269° West 460 529 30,000  Level FlightAware ADS-B
07:05AM 39.2926 -104.9440 269° West 459 528 30,000  Level FlightAware ADS-B
07:06AM 39.2913 -105.0290 269° West 459 528 30,000  Level FlightAware ADS-B
07:06AM 39.2899 -105.1140 269° West 460 529 30,000  Level FlightAware ADS-B
07:07AM 39.2885 -105.1990 269° West 459 528 30,000  Level FlightAware ADS-B
07:07AM 39.2870 -105.2810 269° West 458 527 30,000  Level FlightAware ADS-B
07:08AM 39.2854 -105.3650 269° West 457 526 30,000  Level FlightAware ADS-B
07:08AM 39.2839 -105.4490 269° West 457 526 30,000  Level FlightAware ADS-B
07:09AM 39.2822 -105.5310 268° West 456 525 30,000  Level FlightAware ADS-B
07:09AM 39.2804 -105.6150 268° West 455 524 30,000  Level FlightAware ADS-B
07:10AM 39.2788 -105.6960 269° West 456 525 30,000  Level FlightAware ADS-B
07:10AM 39.2769 -105.7810 268° West 457 526 30,000  Level FlightAware ADS-B
07:11AM 39.2750 -105.8620 268° West 457 526 30,000  Level FlightAware ADS-B
07:11AM 39.2730 -105.9450 268° West 458 527 30,000  Level FlightAware ADS-B
07:12AM 39.2707 -106.0350 268° West 460 529 30,000  Level FlightAware ADS-B
07:12AM 39.2687 -106.1170 268° West 462 532 30,000  Level FlightAware ADS-B
07:13AM 39.2666 -106.2030 268° West 463 533 30,000  Level FlightAware ADS-B
07:13AM 39.2640 -106.2990 268° West 464 534 30,000 60 Level FlightAware ADS-B
07:14AM 39.2617 -106.3850 268° West 464 534 30,100 60 Climbing FlightAware ADS-B
07:14AM 39.2593 -106.4680 268° West 464 534 30,100 -120 Level FlightAware ADS-B
07:15AM 39.2569 -106.5540 268° West 465 535 30,000 -120 Descending FlightAware ADS-B
07:15AM 39.2544 -106.6370 268° West 465 535 30,000  Level FlightAware ADS-B
07:16AM 39.2511 -106.7480 268° West 465 535 30,000  Level FlightAware ADS-B
07:17AM 39.2484 -106.8310 268° West 465 535 30,000  Level FlightAware ADS-B
07:17AM 39.2447 -106.9470 268° West 464 534 30,000  Level FlightAware ADS-B
07:18AM 39.2420 -107.0330 268° West 465 535 30,000  Level FlightAware ADS-B
07:18AM 39.2391 -107.1160 267° West 464 534 30,000  Level FlightAware ADS-B
07:19AM 39.2340 -107.2700 268° West 463 533 30,000  Level FlightAware
07:20AM 39.2300 -107.3860 267° West 463 533 30,000  Level FlightAware
07:21AM 39.2250 -107.5100 267° West 464 534 30,000  Level FlightAware
07:21AM 39.2210 -107.6080 267° West 464 534 30,000  Level FlightAware
07:22AM 39.2150 -107.7700 267° West 463 533 30,000  Level FlightAware
07:23AM 39.2100 -107.8940 267° West 463 533 30,000  Level FlightAware
07:24AM 39.2050 -108.0070 267° West 463 533 30,000  Level FlightAware
07:24AM 39.2010 -108.1170 267° West 462 532 30,000  Level FlightAware
07:25AM 39.1960 -108.2350 267° West 462 532 30,000  Level FlightAware
07:26AM 39.1880 -108.3860 266° West 463 533 30,000 60 Level FlightAware
07:27AM 39.1840 -108.4880 267° West 461 531 30,100  Climbing FlightAware
07:28AM 39.1780 -108.6250 267° West 459 528 30,000 -120 Descending FlightAware
07:28AM 39.1720 -108.7400 266° West 459 528 30,000  Level FlightAware
07:29AM 39.1660 -108.8600 266° West 458 527 30,000  Level FlightAware
07:30AM 39.1610 -108.9720 267° West 458 527 30,000  Level FlightAware
07:30AM 39.1550 -109.0770 266° West 457 526 30,000  Level FlightAware
07:31AM 39.1480 -109.2190 266° West 457 526 30,000  Level FlightAware
07:32AM 39.1420 -109.3330 266° West 455 524 30,000  Level FlightAware
07:33AM 39.1370 -109.4350 266° West 456 525 30,000  Level FlightAware
07:33AM 39.1290 -109.5760 266° West 455 524 30,000  Level FlightAware
07:34AM 39.1240 -109.6630 266° West 455 524 30,000  Level FlightAware
07:35AM 39.1180 -109.7780 266° West 455 524 30,000  Level FlightAware
07:35AM 39.1130 -109.8700 266° West 455 524 30,000  Level FlightAware
07:36AM 39.1080 -109.9620 266° West 455 524 30,000  Level FlightAware
07:37AM 39.1030 -110.0540 266° West 455 524 30,000  Level FlightAware
07:37AM 39.0939 -110.1867 266° West 457 526 30,000 60 Level Salt Lake Center
07:38AM 39.0864 -110.3439 267° West 459 528 30,100  Climbing Salt Lake Center
07:39AM 39.0744 -110.5272 265° West 460 529 30,000 -60 Descending Salt Lake Center
07:40AM 39.0628 -110.6847 265° West 461 531 30,000  Level Salt Lake Center
07:41AM 39.0519 -110.8431 265° West 463 533 30,000  Level Salt Lake Center
07:42AM 39.0419 -111.0006 265° West 462 532 30,000  Level Salt Lake Center
07:43AM 39.0300 -111.1839 265° West 460 529 30,000  Level Salt Lake Center
07:44AM 39.0200 -111.3442 265° West 460 529 30,000 -60 Level Salt Lake Center
07:45AM 39.0081 -111.5050 265° West 456 525 29,900  Descending Salt Lake Center
07:46AM 38.9961 -111.6661 265° West 455 524 30,000  Climbing Salt Lake Center
07:47AM 38.9836 -111.8308 264° West 463 533 30,000  Level Salt Lake Center
07:48AM 38.9717 -111.9936 265° West 460 529 30,000  Level Salt Lake Center
07:49AM 38.9592 -112.1550 264° West 457 526 30,000  Level Salt Lake Center
07:50AM 38.9464 -112.3169 264° West 458 527 30,000  Level Salt Lake Center
07:51AM 38.9336 -112.4783 264° West 456 525 30,000  Level Salt Lake Center
07:52AM 38.9197 -112.6378 264° West 454 522 30,000  Level Salt Lake Center
07:53AM 38.9056 -112.7972 264° West 452 520 30,000  Level Salt Lake Center
07:54AM 38.8922 -112.9578 264° West 453 521 30,000  Level Salt Lake Center
07:55AM 38.8792 -113.1197 264° West 456 525 30,000  Level Salt Lake Center
07:56AM 38.8664 -113.2742 264° West 450 518 30,000  Level Salt Lake Center
07:57AM 38.8517 -113.4331 263° West 451 519 30,000  Level Salt Lake Center
07:58AM 38.8375 -113.5922 264° West 452 520 30,000  Level Salt Lake Center
07:59AM 38.8231 -113.7525 263° West 455 524 30,100 720 Climbing Salt Lake Center
08:00AM 38.8072 -113.9133 263° West 457 526 31,500 900 Climbing Salt Lake Center
08:01AM 38.7936 -114.0722 264° West 452 520 32,000 240 Climbing Salt Lake Center
08:02AM 38.7783 -114.2283 263° West 446 513 32,000  Level Salt Lake Center
08:03AM 38.7639 -114.3836 263° West 444 511 32,000  Level Salt Lake Center
08:04AM 38.7489 -114.5400 263° West 445 512 32,000  Level Salt Lake Center
08:05AM 38.7331 -114.6944 263° West 441 507 32,000  Level Salt Lake Center
08:06AM 38.7172 -114.8494 263° West 441 507 32,000  Level Salt Lake Center
08:07AM 38.6983 -115.0086 261° West 450 518 32,000  Level Salt Lake Center
08:08AM 38.6817 -115.1650 262° West 448 516 32,000  Level Salt Lake Center
08:09AM 38.6675 -115.3178 263° West 441 507 32,000  Level Salt Lake Center
08:10AM 38.6500 -115.4769 262° West 437 503 32,000  Level Salt Lake Center
08:11AM 38.6339 -115.6297 262° West 435 501 32,000  Level Salt Lake Center
08:12AM 38.6172 -115.7806 262° West 431 496 32,000  Level Salt Lake Center
08:13AM 38.6011 -115.9317 262° West 430 495 32,000  Level Salt Lake Center
08:14AM 38.5844 -116.0831 262° West 431 496 32,000  Level Salt Lake Center
08:15AM 38.5747 -116.1753 262° West 433 498 32,000  Level Oakland Center
08:16AM 38.5572 -116.3278 262° West 434 499 32,000 60 Level Oakland Center
08:16AM 38.5500 -116.3900 262° West 437 503 32,100  Climbing Salt Lake Center
08:17AM 38.5317 -116.5436 261° West 439 505 32,000  Descending Salt Lake Center
08:18AM 38.5217 -116.6356 262° West 438 504 32,100  Climbing Oakland Center
08:19AM 38.4981 -116.7903 259° West 444 511 32,000 -60 Descending Oakland Center
08:20AM 38.4736 -116.9428 258° West 443 510 32,000  Level Oakland Center
08:21AM 38.4503 -117.0953 259° West 442 509 32,000  Level Oakland Center
08:21AM 38.4356 -117.1839 258° West 438 504 32,000  Level Salt Lake Center
08:22AM 38.4125 -117.3347 259° West 439 505 32,000 -120 Level Salt Lake Center
08:23AM 38.4031 -117.3961 259° West 440 506 31,900  Descending Oakland Center
08:24AM 38.3786 -117.5461 258° West 437 503 32,000  Climbing Oakland Center
08:25AM 38.3550 -117.6975 259° West 438 504 32,000  Level Oakland Center
08:26AM 38.3300 -117.8508 258° West 443 510 32,100  Climbing Oakland Center
08:27AM 38.3044 -118.0039 258° West 444 511 32,000 -60 Descending Oakland Center
08:33AM 38.1520 -118.9120 258° West 449 517 32,000  Level FlightAware
08:33AM 38.1370 -118.9990 258° West 450 518 32,000  Level FlightAware
08:34AM 38.1170 -119.1160 258° West 451 519 32,000  Level FlightAware
08:35AM 38.0930 -119.2500 257° West 452 520 32,000  Level FlightAware
08:35AM 38.0750 -119.3540 258° West 452 520 32,000  Level FlightAware
08:36AM 38.0530 -119.4760 257° West 453 521 32,000  Level FlightAware
08:37AM 38.0300 -119.6080 258° West 455 524 32,000 60 Level FlightAware
08:38AM 38.0100 -119.7170 257° West 455 524 32,100  Climbing FlightAware
08:39AM 37.9900 -119.8290 257° West 456 525 32,000 -120 Descending FlightAware
08:39AM 37.9760 -119.9080 257° West 457 526 32,000  Level FlightAware
08:40AM 37.9520 -120.0380 257° West 458 527 32,000  Level FlightAware
08:41AM 37.9300 -120.1590 257° West 457 526 32,000  Level FlightAware
08:41AM 37.9120 -120.2580 257° West 457 526 32,000  Level FlightAware
08:42AM 37.8890 -120.3780 256° West 457 526 32,000  Level FlightAware
08:43AM 37.8690 -120.4840 257° West 456 525 32,000  Level FlightAware
08:43AM 37.8470 -120.6010 257° West 456 525 32,000  Level FlightAware
08:44AM 37.8310 -120.6900 257° West 456 525 32,000  Level FlightAware
08:45AM 37.8090 -120.8060 257° West 457 526 32,000  Level FlightAware
08:46AM 37.7860 -120.9260 256° West 457 526 32,000  Level FlightAware
08:46AM 37.7660 -121.0270 256° West 457 526 32,000  Level FlightAware
08:47AM 37.7470 -121.1290 257° West 457 526 32,000 60 Level FlightAware
08:48AM 37.7230 -121.2530 256° West 456 525 32,100 60 Climbing FlightAware
08:48AM 37.7030 -121.3540 256° West 457 526 32,100 -120 Level FlightAware
08:49AM 37.6810 -121.4680 256° West 455 524 32,000 -120 Descending FlightAware
08:50AM 37.6600 -121.5730 256° West 454 522 32,000  Level FlightAware
08:50AM 37.6400 -121.6730 256° West 454 522 32,000  Level FlightAware
08:51AM 37.6160 -121.7940 256° West 453 521 32,000  Level FlightAware
08:52AM 37.5960 -121.8960 256° West 454 522 32,000  Level FlightAware
08:53AM 37.5730 -122.0070 255° West 456 525 32,000  Level FlightAware
08:53AM 37.5520 -122.1100 256° West 459 528 32,000  Level FlightAware
08:54AM 37.5310 -122.2140 256° West 461 531 32,000 60 Level FlightAware
08:55AM 37.5100 -122.3210 256° West 463 533 32,100  Climbing FlightAware
08:55AM 37.4850 -122.4390 255° West 465 535 32,000  Descending FlightAware
08:56AM 37.4650 -122.5360 255° West 466 536 32,100  Climbing FlightAware
08:57AM 37.4430 -122.6410 255° West 465 535 32,000 -120 Descending FlightAware
08:57AM 37.4180 -122.7640 256° West 463 533 32,000  Level FlightAware
08:58AM 37.3970 -122.8650 255° West 463 533 32,000  Level FlightAware
08:59AM 37.3710 -122.9870 255° West 461 531 32,000  Level FlightAware
08:59AM 37.3490 -123.0910 255° West 460 529 32,000  Level FlightAware
09:00AM 37.3240 -123.2090 255° West 460 529 32,000  Level FlightAware
09:01AM 37.3020 -123.3100 255° West 461 531 32,000  Level FlightAware
09:02AM 37.2780 -123.4240 255° West 465 535 32,000  Level FlightAware
09:02AM 37.2560 -123.5240 255° West 466 536 32,000  Level FlightAware
09:03AM 37.2280 -123.6550 255° West 465 535 32,000  Level FlightAware
09:04AM 37.2090 -123.7440 255° West 465 535 32,000  Level FlightAware
09:05AM 37.1900 -123.8330 255° West 465 535 32,000  Level FlightAware
09:05AM 37.1710 -123.9210 255° West 465 535 32,000  Level FlightAware
09:06AM 37.1520 -124.0100 255° West 465 535 32,000  Level FlightAware
09:07AM 37.1290 -124.1210 255° West 465 535 32,000  Level FlightAware
09:07AM 37.1100 -124.2090 255° West 465 535 32,000  Level FlightAware
09:08AM 37.0910 -124.2980 255° West 465 535 32,000  Level FlightAware
09:09AM 37.0670 -124.4090 255° West 465 535 32,000  Level FlightAware
09:10AM 37.0480 -124.4970 255° West 465 535 32,000  Level FlightAware
09:10AM 37.0290 -124.5860 255° West 465 535 32,000  Level FlightAware
09:11AM 37.0100 -124.6740 255° West 465 535 32,000  Level FlightAware
09:12AM 36.9910 -124.7630 255° West 465 535 32,000  Level FlightAware
09:12AM 36.9720 -124.8510 255° West 465 535 32,000 -120 Level FlightAware
09:13AM 36.8789 -125.2131 255° West 472 543 31,900 -60 Descending Oakland Center
09:14AM 36.8431 -125.3700 254° West 471 542 31,900  Level Oakland Center
09:15AM 36.8064 -125.5272 254° West 472 543 31,900  Level Oakland Center
09:16AM 36.7692 -125.6847 254° West 475 547 31,900  Level Oakland Center
09:17AM 36.7308 -125.8425 253° West 475 547 32,000  Climbing Oakland Center
09:18AM 36.6939 -126.0014 254° West 478 550 32,000  Level Oakland Center
09:19AM 36.6558 -126.1608 253° West 480 552 32,000  Level Oakland Center
09:20AM 36.6164 -126.3200 253° West 482 555 32,000  Level Oakland Center
09:21AM 36.5769 -126.4792 253° West 482 555 32,000  Level Oakland Center
09:22AM 36.5389 -126.6403 254° West 484 557 32,000  Level Oakland Center
09:23AM 36.5000 -126.8003 253° West 484 557 32,000  Level Oakland Center
09:24AM 36.4667 -126.9333 250° West 480 552 32,000 -120 Level Oakland Oceanic (ODAPS)
09:24AM 36.4600 -126.9600 253° West 485 558 31,900 -120 Descending Oakland Center
09:25AM 36.4153 -127.1169 250° West 484 557 31,900 60 Level Oakland Center
09:25AM 36.4333 -127.0500 250° West 481 554 32,000 60 Climbing Oakland Oceanic (ODAPS)
09:26AM 36.3700 -127.2750 250° West 486 559 32,000  Level Oakland Center
09:26AM 36.3667 -127.2500 250° West 481 554 32,000  Level Oakland Oceanic (ODAPS)
09:27AM 36.3214 -127.4419 250° West 484 557 32,000  Level Oakland Center
09:29AM 36.2586 -127.6525 250° West  Level FlightAware Approximate
09:36AM 35.9468 -128.6758 250° West  Level FlightAware Approximate
09:37AM 35.9015 -128.8213 249° West  Level FlightAware Approximate
09:38AM 35.8561 -128.9667 249° West  Level FlightAware Approximate
09:39AM 35.8105 -129.1119 249° West  Level FlightAware Approximate
09:39AM 35.7833 -129.2000 249° West 479 551 32,000  Level Oakland Oceanic (ODAPS)
09:40AM 35.7647 -129.2569 249° West  Level FlightAware Approximate
09:41AM 35.7187 -129.4017 249° West  Level FlightAware Approximate
09:42AM 35.6726 -129.5464 249° West  Level FlightAware Approximate
09:43AM 35.6263 -129.6910 249° West  Level FlightAware Approximate
09:44AM 35.5798 -129.8353 248° West  Level FlightAware Approximate
09:45AM 35.4875 -130.1249 248° West 479 551 32,000  Level FlightAware Transoceanic
09:46AM 35.4376 -130.2784 248° West 479 551 32,000  Level FlightAware Transoceanic
09:47AM 35.3874 -130.4317 248° West 479 551 32,000  Level FlightAware Transoceanic
09:48AM 35.3370 -130.5848 248° West 479 551 32,000  Level FlightAware Transoceanic
09:49AM 35.2864 -130.7377 248° West 479 551 32,000  Level FlightAware Transoceanic
09:50AM 35.2357 -130.8904 248° West 479 551 32,000  Level FlightAware Transoceanic
09:51AM 35.1847 -131.0430 248° West 479 551 32,000  Level FlightAware Transoceanic
09:52AM 35.1336 -131.1953 248° West 479 551 32,000  Level FlightAware Transoceanic
09:53AM 35.0823 -131.3474 248° West 479 551 32,000  Level FlightAware Transoceanic
09:53AM 35.1000 -131.2833 248° West 478 550 32,000  Level Oakland Oceanic (ODAPS)
09:54AM 35.0308 -131.4994 247° West 479 551 32,000  Level FlightAware Transoceanic
09:55AM 34.9791 -131.6511 247° West 479 551 32,000  Level FlightAware Transoceanic
09:56AM 34.9272 -131.8027 247° West 479 551 32,000  Level FlightAware Transoceanic
09:57AM 34.8751 -131.9541 247° West 479 551 32,000  Level FlightAware Transoceanic
09:58AM 34.8228 -132.1053 247° West 479 551 32,000  Level FlightAware Transoceanic
09:59AM 34.7831 -132.2117 247° West 478 550 32,000  Level FlightAware Transoceanic
10:00AM 34.7296 -132.3658 247° West 478 550 32,000  Level FlightAware Transoceanic
10:01AM 34.6759 -132.5196 247° West 478 550 32,000  Level FlightAware Transoceanic
10:02AM 34.6220 -132.6732 247° West 478 550 32,000  Level FlightAware Transoceanic
10:03AM 34.5679 -132.8266 247° West 478 550 32,000  Level FlightAware Transoceanic
10:04AM 34.5136 -132.9799 247° West 478 550 32,000  Level FlightAware Transoceanic
10:05AM 34.4592 -133.1329 247° West 478 550 32,000  Level FlightAware Transoceanic
10:06AM 34.4045 -133.2858 247° West 478 550 32,000  Level FlightAware Transoceanic
10:06AM 34.3833 -133.3667 246° West 485 558 32,000  Level Oakland Oceanic (ODAPS)
10:07AM 34.3497 -133.4384 246° West 478 550 32,000  Level FlightAware Transoceanic
10:08AM 34.2947 -133.5908 246° West 478 550 32,000  Level FlightAware Transoceanic
10:09AM 34.2394 -133.7431 246° West 478 550 32,000  Level FlightAware Transoceanic
10:10AM 34.1840 -133.8951 246° West 478 550 32,000  Level FlightAware Transoceanic
10:11AM 34.1284 -134.0469 246° West 478 550 32,000  Level FlightAware Transoceanic
10:12AM 34.0726 -134.1986 246° West 478 550 32,000  Level FlightAware Transoceanic
10:13AM 34.0167 -134.3500 246° West 485 558 32,000  Level FlightAware Transoceanic
10:13AM 34.0167 -134.3500 246° West 497 572 32,000  Level Oakland Oceanic (ODAPS)
10:14AM 33.9616 -134.4989 246° West 485 558 32,000  Level FlightAware Transoceanic
10:15AM 33.9064 -134.6477 246° West 485 558 32,000  Level FlightAware Transoceanic
10:16AM 33.8510 -134.7963 246° West 485 558 32,000  Level FlightAware Transoceanic
10:17AM 33.7955 -134.9446 246° West 485 558 32,000  Level FlightAware Transoceanic
10:18AM 33.7397 -135.0928 246° West 485 558 32,000  Level FlightAware Transoceanic
10:19AM 33.6766 -135.2597 246° West 497 572 32,000  Level FlightAware Transoceanic
10:20AM 33.6193 -135.4106 245° Southwest 497 572 32,000  Level FlightAware Transoceanic
10:20AM 33.6167 -135.4333 245° Southwest 499 574 32,000  Level Oakland Oceanic (ODAPS)
10:21AM 33.5618 -135.5613 245° Southwest 497 572 32,000  Level FlightAware Transoceanic
10:22AM 33.5041 -135.7118 245° Southwest 497 572 32,000  Level FlightAware Transoceanic
10:23AM 33.4463 -135.8621 245° Southwest 497 572 32,000  Level FlightAware Transoceanic
10:24AM 33.3882 -136.0122 245° Southwest 497 572 32,000  Level FlightAware Transoceanic
10:25AM 33.3300 -136.1621 245° Southwest 497 572 32,000  Level FlightAware Transoceanic
10:26AM 33.2716 -136.3118 245° Southwest 497 572 32,000  Level FlightAware Transoceanic
10:27AM 33.2602 -136.3540 245° Southwest 499 574 32,000  Level FlightAware Transoceanic
10:28AM 33.2001 -136.5067 245° Southwest 499 574 32,000  Level FlightAware Transoceanic
10:29AM 33.1399 -136.6591 245° Southwest 499 574 32,000  Level FlightAware Transoceanic
10:30AM 33.0794 -136.8114 245° Southwest 499 574 32,000  Level FlightAware Transoceanic
10:31AM 33.0188 -136.9635 245° Southwest 499 574 32,000  Level FlightAware Transoceanic
10:32AM 32.9580 -137.1154 244° Southwest 499 574 32,000  Level FlightAware Transoceanic
10:33AM 32.8970 -137.2670 244° Southwest 499 574 32,000  Level FlightAware Transoceanic
10:34AM 32.8358 -137.4185 244° Southwest 499 574 32,000  Level FlightAware Transoceanic
10:34AM 32.8167 -137.4833 244° Southwest 502 578 32,000  Level Oakland Oceanic (ODAPS)
10:35AM 32.7745 -137.5697 244° Southwest 499 574 32,000  Level FlightAware Transoceanic
10:36AM 32.7130 -137.7207 244° Southwest 499 574 32,000  Level FlightAware Transoceanic
10:37AM 32.6512 -137.8716 244° Southwest 499 574 32,000  Level FlightAware Transoceanic
10:38AM 32.5893 -138.0222 244° Southwest 499 574 32,000  Level FlightAware Transoceanic
10:39AM 32.5272 -138.1726 244° Southwest 499 574 32,000  Level FlightAware Transoceanic
10:40AM 32.4650 -138.3228 244° Southwest 499 574 32,000  Level FlightAware Transoceanic
10:41AM 32.3881 -138.5198 244° Southwest 502 578 32,000  Level FlightAware Transoceanic
10:42AM 32.3262 -138.6670 244° Southwest 502 578 32,000  Level FlightAware Transoceanic
10:43AM 32.2642 -138.8141 243° Southwest 502 578 32,000  Level FlightAware Transoceanic
10:44AM 32.2019 -138.9609 243° Southwest 502 578 32,000  Level FlightAware Transoceanic
10:45AM 32.1395 -139.1076 243° Southwest 502 578 32,000  Level FlightAware Transoceanic
10:46AM 32.0769 -139.2540 243° Southwest 502 578 32,000  Level FlightAware Transoceanic
10:47AM 32.0142 -139.4003 243° Southwest 502 578 32,000  Level FlightAware Transoceanic
10:48AM 31.9512 -139.5463 243° Southwest 502 578 32,000  Level FlightAware Transoceanic
10:48AM 31.9667 -139.5000 243° Southwest 502 578 32,000  Level Oakland Oceanic (ODAPS)
10:49AM 31.8881 -139.6922 243° Southwest 502 578 32,000  Level FlightAware Transoceanic
10:50AM 31.8249 -139.8378 243° Southwest 502 578 32,000  Level FlightAware Transoceanic
10:51AM 31.7615 -139.9832 243° Southwest 502 578 32,000  Level FlightAware Transoceanic
10:52AM 31.6979 -140.1285 243° Southwest 502 578 32,000  Level FlightAware Transoceanic
10:53AM 31.6341 -140.2735 243° Southwest 502 578 32,000  Level FlightAware Transoceanic
10:54AM 31.6082 -140.3268 243° Southwest 502 578 32,000  Level FlightAware Transoceanic
10:55AM 31.5480 -140.4640 243° Southwest 502 578 32,000  Level FlightAware Transoceanic
10:56AM 31.4875 -140.6010 243° Southwest 502 578 32,000  Level FlightAware Transoceanic
10:57AM 31.4270 -140.7378 243° Southwest 502 578 32,000  Level FlightAware Transoceanic
10:58AM 31.3663 -140.8745 242° Southwest 502 578 32,000  Level FlightAware Transoceanic
10:59AM 31.3055 -141.0109 242° Southwest 502 578 32,000  Level FlightAware Transoceanic
11:00AM 31.2445 -141.1472 242° Southwest 502 578 32,000  Level FlightAware Transoceanic
11:00AM 31.1833 -141.2833 242° Southwest 515 593 32,000  Level Oakland Oceanic (ODAPS)
11:01AM 31.1833 -141.2833 242° Southwest 502 578 32,000  Level FlightAware Transoceanic
11:02AM 31.1198 -141.4241 242° Southwest 502 578 32,000  Level FlightAware Transoceanic
11:02AM 31.0667 -141.5333 242° Southwest 515 593 32,000  Level Oakland Oceanic (ODAPS)
11:03AM 31.0561 -141.5647 242° Southwest 502 578 32,000  Level FlightAware Transoceanic
11:04AM 30.9922 -141.7052 242° Southwest 502 578 32,000  Level FlightAware Transoceanic
11:05AM 30.9282 -141.8454 242° Southwest 502 578 32,000  Level FlightAware Transoceanic
11:06AM 30.8640 -141.9855 242° Southwest 502 578 32,000  Level FlightAware Transoceanic
11:07AM 30.7745 -142.1800 242° Southwest 515 593 32,000  Level FlightAware Transoceanic
11:08AM 30.6628 -142.4146 242° Southwest 515 593 32,000  Level FlightAware Transoceanic
11:09AM 30.5949 -142.5608 242° Southwest 515 593 32,000  Level FlightAware Transoceanic
11:10AM 30.5268 -142.7068 242° Southwest 515 593 32,000  Level FlightAware Transoceanic
11:11AM 30.4586 -142.8525 241° Southwest 515 593 32,000  Level FlightAware Transoceanic
11:12AM 30.3902 -142.9980 241° Southwest 515 593 32,000  Level FlightAware Transoceanic
11:13AM 30.3217 -143.1434 241° Southwest 515 593 32,000  Level FlightAware Transoceanic
11:14AM 30.2530 -143.2885 241° Southwest 515 593 32,000  Level FlightAware Transoceanic
11:15AM 30.1841 -143.4335 241° Southwest 515 593 32,000  Level FlightAware Transoceanic
11:16AM 30.1151 -143.5782 241° Southwest 515 593 32,000  Level FlightAware Transoceanic
11:16AM 30.1167 -143.5667 241° Southwest 515 593 32,000  Level Oakland Oceanic (ODAPS)
11:17AM 30.0459 -143.7227 241° Southwest 515 593 32,000  Level FlightAware Transoceanic
11:18AM 29.9765 -143.8671 241° Southwest 515 593 32,000  Level FlightAware Transoceanic
11:19AM 29.9070 -144.0112 241° Southwest 515 593 32,000  Level FlightAware Transoceanic
11:20AM 29.8374 -144.1551 241° Southwest 515 593 32,000  Level FlightAware Transoceanic
11:21AM 29.7676 -144.2988 241° Southwest 515 593 32,000  Level FlightAware Transoceanic
11:22AM 29.6990 -144.4331 241° Southwest 515 593 32,000  Level FlightAware Transoceanic
11:23AM 29.6288 -144.5768 241° Southwest 515 593 32,000  Level FlightAware Transoceanic
11:24AM 29.5585 -144.7203 241° Southwest 515 593 32,000  Level FlightAware Transoceanic
11:25AM 29.4880 -144.8636 240° Southwest 515 593 32,000  Level FlightAware Transoceanic
11:26AM 29.4174 -145.0067 240° Southwest 515 593 32,000  Level FlightAware Transoceanic
11:27AM 29.3466 -145.1496 240° Southwest 515 593 32,000  Level FlightAware Transoceanic
11:28AM 29.2757 -145.2924 240° Southwest 515 593 32,000  Level FlightAware Transoceanic
11:29AM 29.2046 -145.4349 240° Southwest 515 593 32,000  Level FlightAware Transoceanic
11:30AM 29.1334 -145.5772 240° Southwest 515 593 32,000  Level FlightAware Transoceanic
11:30AM 29.1500 -145.5333 240° Southwest 505 581 32,000  Level Oakland Oceanic (ODAPS)
11:31AM 29.0620 -145.7193 240° Southwest 515 593 32,000  Level FlightAware Transoceanic
11:32AM 28.9905 -145.8612 240° Southwest 515 593 32,000  Level FlightAware Transoceanic
11:33AM 28.9188 -146.0029 240° Southwest 515 593 32,000  Level FlightAware Transoceanic
11:34AM 28.8470 -146.1445 240° Southwest 515 593 32,000  Level FlightAware Transoceanic
11:35AM 28.7750 -146.2858 240° Southwest 515 593 32,000  Level FlightAware Transoceanic
11:36AM 28.7382 -146.3509 240° Southwest 505 581 32,000  Level FlightAware Transoceanic
11:37AM 28.6691 -146.4865 240° Southwest 505 581 32,000  Level FlightAware Transoceanic
11:38AM 28.5998 -146.6219 240° Southwest 505 581 32,000  Level FlightAware Transoceanic
11:39AM 28.5304 -146.7572 240° Southwest 505 581 32,000  Level FlightAware Transoceanic
11:40AM 28.4609 -146.8923 240° Southwest 505 581 32,000  Level FlightAware Transoceanic
11:41AM 28.3913 -147.0272 240° Southwest 505 581 32,000  Level FlightAware Transoceanic
11:42AM 28.3215 -147.1620 239° Southwest 505 581 32,000  Level FlightAware Transoceanic
11:43AM 28.2516 -147.2965 239° Southwest 505 581 32,000  Level FlightAware Transoceanic
11:44AM 28.1815 -147.4309 239° Southwest 505 581 32,000 1,980 Level FlightAware Transoceanic
11:44AM 28.1833 -147.4167 240° Southwest 486 559 34,000  Climbing Oakland Oceanic (ODAPS)
11:45AM 28.1113 -147.5651 239° Southwest 505 581 32,000 -1,020 Descending FlightAware Transoceanic
11:46AM 28.0410 -147.6991 239° Southwest 505 581 32,000  Level FlightAware Transoceanic
11:47AM 27.9706 -147.8330 239° Southwest 505 581 32,000  Level FlightAware Transoceanic
11:48AM 27.9000 -147.9667 239° Southwest 505 581 32,000 1,440 Level FlightAware Transoceanic
11:48AM 27.9000 -147.9667 239° Southwest 487 560 34,000  Climbing Oakland Oceanic (ODAPS)
11:49AM 27.8308 -148.0962 239° Southwest 505 581 32,000  Descending FlightAware Transoceanic
11:50AM 27.7614 -148.2256 239° Southwest 486 559 34,000 960 Climbing FlightAware Transoceanic
11:51AM 27.6919 -148.3548 239° Southwest 486 559 34,000  Level FlightAware Transoceanic
11:52AM 27.6223 -148.4839 239° Southwest 486 559 34,000  Level FlightAware Transoceanic
11:53AM 27.5526 -148.6128 239° Southwest 486 559 34,000  Level FlightAware Transoceanic
11:54AM 27.4742 -148.7572 239° Southwest 487 560 34,000  Level FlightAware Transoceanic
11:55AM 27.4028 -148.8884 238° Southwest 487 560 34,000  Level FlightAware Transoceanic
11:56AM 27.3313 -149.0194 238° Southwest 487 560 34,000  Level FlightAware Transoceanic
11:57AM 27.2597 -149.1502 238° Southwest 487 560 34,000  Level FlightAware Transoceanic
11:57AM 27.2167 -149.2333 238° Southwest 484 557 34,000  Level Oakland Oceanic (ODAPS)
11:58AM 27.1879 -149.2809 238° Southwest 487 560 34,000  Level FlightAware Transoceanic
11:59AM 27.1160 -149.4114 238° Southwest 487 560 34,000  Level FlightAware Transoceanic
12:00PM 27.0440 -149.5417 238° Southwest 487 560 34,000  Level FlightAware Transoceanic
12:01PM 26.9719 -149.6718 238° Southwest 487 560 34,000  Level FlightAware Transoceanic
12:02PM 26.8997 -149.8018 238° Southwest 487 560 34,000  Level FlightAware Transoceanic
12:03PM 26.8273 -149.9317 238° Southwest 487 560 34,000  Level FlightAware Transoceanic
12:04PM 26.7904 -150.0018 238° Southwest 484 557 34,000  Level FlightAware Transoceanic
12:05PM 26.7189 -150.1293 238° Southwest 484 557 34,000  Level FlightAware Transoceanic
12:06PM 26.6473 -150.2566 238° Southwest 484 557 34,000  Level FlightAware Transoceanic
12:07PM 26.5757 -150.3838 238° Southwest 484 557 34,000  Level FlightAware Transoceanic
12:08PM 26.5039 -150.5108 238° Southwest 484 557 34,000  Level FlightAware Transoceanic
12:09PM 26.4320 -150.6377 238° Southwest 484 557 34,000  Level FlightAware Transoceanic
12:10PM 26.3599 -150.7644 238° Southwest 484 557 34,000  Level FlightAware Transoceanic
12:11PM 26.2878 -150.8910 238° Southwest 484 557 34,000  Level FlightAware Transoceanic
12:11PM 26.2167 -151.0000 238° Southwest 482 555 34,000  Level Oakland Oceanic (ODAPS)
12:12PM 26.2156 -151.0174 237° Southwest 484 557 34,000  Level FlightAware Transoceanic
12:13PM 26.1432 -151.1436 237° Southwest 484 557 34,000  Level FlightAware Transoceanic
12:14PM 26.0708 -151.2697 237° Southwest 484 557 34,000  Level FlightAware Transoceanic
12:15PM 25.9982 -151.3956 237° Southwest 484 557 34,000  Level FlightAware Transoceanic
12:16PM 25.9255 -151.5214 237° Southwest 484 557 34,000  Level FlightAware Transoceanic
12:17PM 25.7970 -151.7312 237° Southwest 482 555 34,000  Level FlightAware Transoceanic
12:18PM 25.7267 -151.8525 237° Southwest 482 555 34,000  Level FlightAware Transoceanic
12:19PM 25.6562 -151.9737 237° Southwest 482 555 34,000  Level FlightAware Transoceanic
12:20PM 25.5857 -152.0948 237° Southwest 482 555 34,000  Level FlightAware Transoceanic
12:21PM 25.5151 -152.2157 237° Southwest 482 555 34,000  Level FlightAware Transoceanic
12:22PM 25.4444 -152.3365 237° Southwest 482 555 34,000  Level FlightAware Transoceanic
12:23PM 25.3736 -152.4571 237° Southwest 482 555 34,000  Level FlightAware Transoceanic
12:24PM 25.3027 -152.5776 237° Southwest 482 555 34,000  Level FlightAware Transoceanic
12:25PM 25.2317 -152.6980 237° Southwest 482 555 34,000  Level FlightAware Transoceanic
12:25PM 25.2000 -152.7500 237° Southwest 489 563 34,000  Level Oakland Oceanic (ODAPS)
12:26PM 25.1606 -152.8182 237° Southwest 482 555 34,000  Level FlightAware Transoceanic
12:27PM 25.0894 -152.9383 237° Southwest 482 555 34,000  Level FlightAware Transoceanic
12:28PM 25.0181 -153.0582 237° Southwest 482 555 34,000  Level FlightAware Transoceanic
12:29PM 24.9467 -153.1780 237° Southwest 482 555 34,000  Level FlightAware Transoceanic
12:30PM 24.8753 -153.2977 237° Southwest 482 555 34,000  Level FlightAware Transoceanic
12:31PM 24.7519 -153.5027 237° Southwest 489 563 34,000  Level FlightAware Transoceanic
12:32PM 24.6768 -153.6276 236° Southwest 489 563 34,000  Level FlightAware Transoceanic
12:33PM 24.6017 -153.7524 236° Southwest 489 563 34,000  Level FlightAware Transoceanic
12:34PM 24.5264 -153.8770 236° Southwest 489 563 34,000  Level FlightAware Transoceanic
12:35PM 24.4510 -154.0015 236° Southwest 489 563 34,000  Level FlightAware Transoceanic
12:36PM 24.3756 -154.1258 236° Southwest 489 563 34,000  Level FlightAware Transoceanic
12:37PM 24.3000 -154.2500 236° Southwest 489 563 34,000  Level FlightAware Transoceanic
12:37PM 24.2833 -154.2667 236° Southwest 480 552 34,000  Level Honolulu Center
12:38PM 24.2307 -154.3627 236° Southwest 489 563 34,000  Level FlightAware Transoceanic
12:38PM 24.2000 -154.3833 232° Southwest 470 541 34,000  Level Honolulu Center
12:39PM 24.1613 -154.4753 236° Southwest 489 563 34,000  Level FlightAware Transoceanic
12:40PM 24.0919 -154.5878 236° Southwest 489 563 34,000  Level FlightAware Transoceanic
12:40PM 24.0500 -154.5667 228° Southwest 490 564 34,000  Level Honolulu Center
12:41PM 24.0224 -154.7002 236° Southwest 489 563 34,000  Level FlightAware Transoceanic
12:41PM 23.9667 -154.6667 228° Southwest 490 564 34,000  Level Honolulu Center
12:42PM 23.9527 -154.8124 236° Southwest 489 563 34,000  Level FlightAware Transoceanic
12:42PM 23.8667 -154.7833 227° Southwest 490 564 34,000  Level Honolulu Center
12:43PM 23.7667 -154.8833 222° Southwest 490 564 34,000  Level Honolulu Center
12:44PM 23.6833 -155.0000 232° Southwest 490 564 34,000  Level Honolulu Center
12:45PM 23.5833 -155.1000 223° Southwest 490 564 34,000  Level Honolulu Center
12:46PM 23.4833 -155.2167 227° Southwest 490 564 34,000  Level Honolulu Center
12:47PM 23.3833 -155.3167 223° Southwest 480 552 34,000 -60 Level Honolulu Center
12:48PM 23.3000 -155.4167 228° Southwest 490 564 33,900  Descending Honolulu Center
12:49PM 23.2000 -155.5333 227° Southwest 490 564 34,000  Climbing Honolulu Center
12:50PM 23.1000 -155.6333 223° Southwest 490 564 34,000  Level Honolulu Center
12:51PM 23.0167 -155.7333 228° Southwest 480 552 34,000  Level Honolulu Center
12:52PM 22.9167 -155.8500 227° Southwest 490 564 34,000  Level Honolulu Center
12:53PM 22.8167 -155.9500 223° Southwest 490 564 34,000  Level Honolulu Center
12:54PM 22.7333 -156.0500 228° Southwest 490 564 34,000  Level Honolulu Center
12:55PM 22.6333 -156.1667 227° Southwest 480 552 34,000  Level Honolulu Center
12:56PM 22.5333 -156.2667 223° Southwest 480 552 34,000  Level Honolulu Center
12:57PM 22.4500 -156.3667 228° Southwest 490 564 34,000  Level Honolulu Center
12:58PM 22.3500 -156.4667 223° Southwest 480 552 34,000  Level Honolulu Center
12:59PM 22.2500 -156.5833 227° Southwest 490 564 34,000  Level Honolulu Center
01:00PM 22.1667 -156.6833 228° Southwest 490 564 34,000 -60 Level Honolulu Center
01:01PM 22.0667 -156.7833 223° Southwest 490 564 33,900 -1,380 Descending Honolulu Center
01:02PM 21.9667 -156.9000 227° Southwest 470 541 31,300 -2,700 Descending Honolulu Center
01:03PM 21.8667 -157.0000 223° Southwest 480 552 28,500 -2,760 Descending Honolulu Center
01:04PM 21.7833 -157.1000 228° Southwest 470 541 25,800 -2,460 Descending Honolulu Center
01:09PM 21.3330 -157.6150 228° Southwest 377 434 12,400 -2,340 Descending FlightAware
01:10PM 21.2900 -157.6730 231° Southwest 359 413 11,200 -1,500 Descending FlightAware
01:11PM 21.2720 -157.7180 247° West 344 396 10,700 -480 Descending FlightAware
01:11PM 21.2480 -157.7820 248° West 344 396 10,700 -960 Level FlightAware
01:12PM 21.2330 -157.8170 245° Southwest 344 396 9,600 -1,320 Descending FlightAware
01:12PM 21.2190 -157.8530 247° West 344 396 9,600 -1,920 Level FlightAware
01:14PM 21.1780 -157.9560 247° West 260 299 6,000 -2,400 Descending FlightAware